createdAt,value
2018-02-06T00:01:25.311Z,97075.98
2018-02-06T00:03:55.590Z,97074.65
2018-02-06T00:06:26.451Z,97074.65
2018-02-06T00:08:55.036Z,97075.00
2018-02-06T00:11:25.629Z,97068.70
2018-02-06T00:13:55.897Z,97070.66
2018-02-06T00:16:35.199Z,97068.93
2018-02-06T00:19:05.464Z,97065.03
2018-02-06T00:21:36.461Z,97069.77
2018-02-06T00:24:07.865Z,97065.95
2018-02-06T00:26:41.206Z,97077.76
2018-02-06T00:29:11.590Z,97056.66
2018-02-06T00:31:42.635Z,97058.24
2018-02-06T00:34:12.053Z,97061.84
2018-02-06T00:36:40.591Z,97061.30
2018-02-06T00:39:09.116Z,97056.70
2018-02-06T00:41:39.304Z,97057.05
2018-02-06T00:44:10.053Z,97052.75
2018-02-06T00:46:38.533Z,97053.47
2018-02-06T00:49:07.437Z,97042.14
2018-02-06T00:51:39.198Z,97044.95
2018-02-06T00:54:07.875Z,97034.06
2018-02-06T00:56:36.356Z,97038.53
2018-02-06T00:59:04.752Z,97039.34
2018-02-06T01:01:35.049Z,97037.64
2018-02-06T01:04:06.740Z,97043.04
2018-02-06T01:06:37.048Z,97035.06
2018-02-06T01:11:41.576Z,97023.22
2018-02-06T01:14:13.074Z,97022.05
2018-02-06T01:16:43.159Z,97030.67
2018-02-06T01:19:11.797Z,97027.41
2018-02-06T01:21:40.438Z,97028.63
2018-02-06T01:24:10.581Z,97023.22
2018-02-06T01:26:40.815Z,97022.36
2018-02-06T01:29:09.452Z,97026.89
2018-02-06T01:31:37.957Z,97023.51
2018-02-06T01:34:06.539Z,97024.29
2018-02-06T01:36:35.025Z,97025.45
2018-02-06T01:39:05.304Z,97022.84
2018-02-06T01:41:41.184Z,97015.73
2018-02-06T01:44:09.784Z,97003.70
2018-02-06T01:46:39.796Z,97009.39
2018-02-06T01:49:08.296Z,97004.86
2018-02-06T01:51:39.521Z,96997.32
2018-02-06T01:54:10.278Z,96996.42
2018-02-06T01:56:40.456Z,96991.31
2018-02-06T01:59:10.841Z,96983.78
2018-02-06T02:01:41.944Z,96985.66
2018-02-06T02:04:19.868Z,96984.52
2018-02-06T02:06:48.335Z,96983.69
2018-02-06T02:09:18.556Z,96976.16
2018-02-06T02:11:47.998Z,96970.76
2018-02-06T02:14:16.463Z,96972.23
2018-02-06T02:16:45.049Z,96973.00
2018-02-06T02:19:15.251Z,96966.36
2018-02-06T02:21:44.780Z,96966.28
2018-02-06T02:24:13.317Z,96967.46
2018-02-06T02:26:43.753Z,96973.73
2018-02-06T02:29:21.964Z,96966.36
2018-02-06T02:31:52.283Z,96960.08
2018-02-06T02:34:25.708Z,96947.95
2018-02-06T02:37:02.314Z,96948.61
2018-02-06T02:39:32.471Z,96949.73
2018-02-06T04:39:59.204Z,96854.02
2018-02-06T04:42:29.642Z,96853.55
2018-02-06T04:45:12.885Z,96850.95
2018-02-06T04:47:45.249Z,96853.41
2018-02-06T04:50:15.537Z,96851.27
2018-02-06T04:52:44.859Z,96854.56
2018-02-06T04:55:13.432Z,96855.28
2018-02-06T04:57:43.726Z,96861.48
2018-02-06T05:00:14.080Z,96854.78
2018-02-06T05:02:54.854Z,96855.50
2018-02-06T05:05:25.266Z,96852.50
2018-02-06T05:07:56.223Z,96852.50
2018-02-06T05:10:26.410Z,96848.67
2018-02-06T05:12:55.778Z,96855.61
2018-02-06T05:15:24.326Z,96849.78
2018-02-06T05:17:53.044Z,96845.61
2018-02-06T05:20:24.586Z,96831.82
2018-02-06T05:22:53.814Z,96841.56
2018-02-06T05:25:23.514Z,96837.35
2018-02-06T05:27:53.814Z,96836.95
2018-02-06T05:30:30.503Z,96831.47
2018-02-06T05:33:01.848Z,96821.50
2018-02-06T05:35:30.440Z,96819.88
2018-02-06T05:38:00.898Z,96820.26
2018-02-06T05:40:32.897Z,96808.30
2018-02-06T05:43:03.131Z,96808.64
2018-02-06T05:45:31.738Z,96800.77
2018-02-06T05:48:03.090Z,96802.38
2018-02-06T05:50:33.576Z,96802.38
2018-02-06T05:53:12.076Z,96803.25
2018-02-06T05:55:45.272Z,96807.52
2018-02-06T05:58:13.842Z,96805.55
2018-02-06T06:00:43.156Z,96798.84
2018-02-06T06:03:13.871Z,96787.97
2018-02-06T06:05:42.395Z,96783.73
2018-02-06T06:08:12.228Z,96794.77
2018-02-06T06:10:40.773Z,96788.52
2018-02-06T06:13:09.426Z,96786.90
2018-02-06T06:18:33.543Z,96797.05
2018-02-06T06:21:11.273Z,96786.30
2018-02-06T06:23:40.902Z,96785.08
2018-02-06T06:26:09.393Z,96785.08
2018-02-06T06:28:37.868Z,96779.31
2018-02-06T06:31:06.347Z,96784.22
2018-02-06T06:33:34.988Z,96775.52
2018-02-06T06:36:05.205Z,96780.75
2018-02-06T06:38:38.077Z,96782.86
2018-02-06T06:41:10.325Z,96786.52
2018-02-06T06:43:38.824Z,96791.91
2018-02-06T06:46:12.149Z,96793.61
2018-02-06T06:48:42.253Z,96796.52
2018-02-06T06:51:12.641Z,96792.52
2018-02-06T06:53:45.119Z,96789.30
2018-02-06T06:56:19.817Z,96789.81
2018-02-06T06:58:48.339Z,96791.69
2018-02-06T07:01:20.024Z,96796.19
2018-02-06T07:03:51.023Z,96797.52
2018-02-06T07:06:21.343Z,96794.69
2018-02-06T07:08:52.413Z,96797.16
2018-02-06T07:11:22.825Z,96796.80
2018-02-06T07:13:55.388Z,96790.16
2018-02-06T07:16:25.727Z,96787.54
2018-02-06T07:18:58.658Z,96775.06
2018-02-06T07:21:29.239Z,96772.84
2018-02-06T07:26:34.278Z,96768.95
2018-02-06T07:29:05.791Z,96764.22
2018-02-06T07:31:36.933Z,96768.30
2018-02-06T07:34:05.483Z,96767.41
2018-02-06T07:36:35.721Z,96766.62
2018-02-06T07:39:08.303Z,96759.98
2018-02-06T07:41:40.857Z,96756.30
2018-02-06T07:44:10.488Z,96755.13
2018-02-06T07:46:40.141Z,96750.25
2018-02-06T07:49:11.209Z,96755.60
2018-02-06T07:51:41.514Z,96751.97
2018-02-06T07:54:25.083Z,96752.40
2018-02-06T07:56:56.262Z,96748.78
2018-02-06T07:59:24.925Z,96745.98
2018-02-06T08:01:55.098Z,96740.59
2018-02-06T08:04:40.796Z,96735.24
2018-02-06T08:07:09.407Z,96734.95
2018-02-06T08:09:40.998Z,96730.99
2018-02-06T08:12:11.374Z,96733.89
2018-02-06T08:14:41.625Z,96735.55
2018-02-06T08:17:10.216Z,96729.75
2018-02-06T08:19:40.543Z,96726.83
2018-02-06T08:22:11.658Z,96721.30
2018-02-06T08:24:44.368Z,96713.86
2018-02-06T08:27:22.033Z,96717.80
2018-02-06T08:29:50.634Z,96706.97
2018-02-06T08:32:20.805Z,96707.55
2018-02-06T08:34:54.870Z,96708.40
2018-02-06T08:37:27.444Z,96704.92
2018-02-06T08:39:56.893Z,96699.73
2018-02-06T08:42:27.568Z,96696.62
2018-02-06T08:44:57.002Z,96692.47
2018-02-06T09:11:20.544Z,96677.72
2018-02-06T09:13:50.995Z,96677.67
2018-02-06T09:16:27.733Z,96668.76
2018-02-06T09:18:58.726Z,96667.52
2018-02-06T09:21:28.946Z,96667.42
2018-02-06T09:27:12.541Z,96663.63
2018-02-06T09:29:44.990Z,96662.52
2018-02-06T09:32:21.055Z,96661.38
2018-02-06T09:34:53.284Z,96659.84
2018-02-06T09:37:21.776Z,96656.64
2018-02-06T09:39:50.458Z,96660.56
2018-02-06T09:42:20.692Z,96657.27
2018-02-06T09:44:51.546Z,96662.36
2018-02-06T09:47:20.306Z,96656.38
2018-02-06T09:49:50.642Z,96652.38
2018-02-06T09:52:23.240Z,96651.80
2018-02-06T09:54:54.158Z,96657.04
2018-02-06T09:57:29.997Z,96654.52
2018-02-06T10:00:00.616Z,96657.74
2018-02-06T10:02:31.303Z,96641.46
2018-02-06T10:05:02.054Z,96650.04
2018-02-06T10:07:30.898Z,96649.08
2018-02-06T10:10:00.218Z,96645.56
2018-02-06T10:12:28.779Z,96647.97
2018-02-06T10:14:58.949Z,96649.94
2018-02-06T10:17:29.521Z,96639.94
2018-02-06T10:19:59.862Z,96634.95
2018-02-06T10:22:30.813Z,96631.59
2018-02-06T10:25:00.009Z,96633.66
2018-02-06T10:27:33.105Z,96622.00
2018-02-06T10:30:01.534Z,96628.06
2018-02-06T10:32:32.582Z,96624.21
2018-02-06T10:35:11.244Z,96625.19
2018-02-06T10:37:39.759Z,96623.89
2018-02-06T10:40:09.936Z,96623.06
2018-02-06T10:42:39.585Z,96624.76
2018-02-06T10:45:09.896Z,96617.37
2018-02-06T10:47:44.914Z,96613.84
2018-02-06T10:50:15.233Z,96610.95
2018-02-06T10:52:48.093Z,96612.37
2018-02-06T10:55:28.518Z,96595.58
2018-02-06T10:57:58.902Z,96590.34
2018-02-06T11:00:29.852Z,96590.56
2018-02-06T11:03:00.512Z,96583.38
2018-02-06T11:05:29.808Z,96583.08
2018-02-06T11:07:58.692Z,96577.47
2018-02-06T11:10:27.700Z,96569.05
2018-02-06T11:12:56.281Z,96563.58
2018-02-06T11:15:24.864Z,96561.52
2018-02-06T11:17:53.453Z,96558.73
2018-02-06T11:20:22.134Z,96562.40
2018-02-06T11:22:50.726Z,96560.86
2018-02-06T11:25:21.605Z,96551.83
2018-02-06T11:27:50.153Z,96551.25
2018-02-06T11:30:21.338Z,96554.82
2018-02-06T11:32:50.641Z,96545.91
2018-02-06T11:35:19.287Z,96545.43
2018-02-06T11:37:47.863Z,96546.16
2018-02-06T11:40:17.099Z,96539.09
2018-02-06T11:42:45.652Z,96542.45
2018-02-06T11:45:14.089Z,96538.25
2018-02-06T11:47:47.365Z,96536.95
2018-02-06T11:50:17.645Z,96527.90
2018-02-06T11:52:48.842Z,96525.31
2018-02-06T11:55:29.318Z,96516.12
2018-02-06T11:57:59.798Z,96515.58
2018-02-06T12:00:30.341Z,96510.58
2018-02-06T12:02:59.118Z,96511.77
2018-02-06T12:05:27.712Z,96508.89
2018-02-06T12:07:59.918Z,96507.59
2018-02-06T12:10:30.100Z,96512.30
2018-02-06T12:12:58.661Z,96511.75
2018-02-06T12:17:59.194Z,96504.17
2018-02-06T12:20:29.337Z,96494.97
2018-02-06T12:22:59.681Z,96487.77
2018-02-06T12:25:30.934Z,96484.70
2018-02-06T12:28:01.931Z,96480.60
2018-02-06T12:30:33.105Z,96479.99
2018-02-06T12:33:02.418Z,96476.71
2018-02-06T12:35:32.725Z,96468.98
2018-02-06T12:38:05.743Z,96454.89
2018-02-06T12:40:36.779Z,96458.10
2018-02-06T12:43:07.559Z,96449.34
2018-02-06T12:45:37.728Z,96455.22
2018-02-06T12:48:08.172Z,96439.38
2018-02-06T12:50:40.684Z,96444.01
2018-02-06T12:53:10.909Z,96446.33
2018-02-06T12:55:40.282Z,96438.03
2018-02-06T12:58:12.730Z,96434.33
2018-02-06T13:00:42.860Z,96433.93
2018-02-06T13:03:12.327Z,96431.47
2018-02-06T13:05:40.856Z,96435.97
2018-02-06T13:08:09.335Z,96431.12
2018-02-06T13:10:40.466Z,96420.68
2018-02-06T13:13:10.774Z,96416.27
2018-02-06T13:15:43.486Z,96418.46
2018-02-06T13:18:25.628Z,96412.83
2018-02-06T13:20:56.726Z,96417.70
2018-02-06T13:23:40.377Z,96397.27
2018-02-06T13:26:10.670Z,96392.17
2018-02-06T13:28:40.795Z,96390.09
2018-02-06T13:31:11.129Z,96389.86
2018-02-06T13:33:43.886Z,96386.61
2018-02-06T13:36:20.815Z,96385.52
2018-02-06T13:38:52.117Z,96381.52
2018-02-06T13:41:20.691Z,96377.14
2018-02-06T13:43:49.219Z,96376.44
2018-02-06T13:46:17.915Z,96374.71
2018-02-06T13:48:48.033Z,96373.94
2018-02-06T13:51:19.792Z,96369.90
2018-02-06T13:53:49.323Z,96370.56
2018-02-06T13:56:19.720Z,96367.86
2018-02-06T13:58:51.902Z,96366.66
2018-02-06T14:01:34.404Z,96366.66
2018-02-06T14:04:03.139Z,96362.97
2018-02-06T14:06:31.689Z,96362.39
2018-02-06T14:09:00.365Z,96372.95
2018-02-06T14:11:34.970Z,96363.32
2018-02-06T14:14:09.923Z,96362.45
2018-02-06T14:16:38.508Z,96357.06
2018-02-06T14:19:07.200Z,96354.59
2018-02-06T14:21:35.785Z,96345.03
2018-02-06T14:24:04.307Z,96347.22
2018-02-06T14:26:32.753Z,96343.22
2018-02-06T14:29:03.201Z,96346.20
2018-02-06T14:31:31.766Z,96347.88
2018-02-06T14:34:00.813Z,96347.80
2018-02-06T14:36:29.445Z,96343.35
2018-02-06T14:38:58.345Z,96347.47
2018-02-06T14:41:27.851Z,96343.23
2018-02-06T14:43:57.071Z,96341.95
2018-02-06T14:46:29.219Z,96345.59
2018-02-06T14:48:57.907Z,96345.98
2018-02-06T14:51:28.209Z,96350.28
2018-02-06T14:53:57.640Z,96346.06
2018-02-06T14:56:30.901Z,96354.79
2018-02-06T14:59:01.155Z,96344.95
2018-02-06T15:01:32.099Z,96346.33
2018-02-06T15:04:00.786Z,96355.13
2018-02-06T15:06:31.290Z,96360.14
2018-02-06T15:08:59.916Z,96352.05
2018-02-06T15:11:28.484Z,96342.49
2018-02-06T15:13:57.909Z,96349.15
2018-02-06T15:19:19.938Z,96349.93
2018-02-06T15:21:49.449Z,96343.39
2018-02-06T15:24:34.916Z,96340.38
2018-02-06T15:27:03.756Z,96340.19
2018-02-06T15:29:34.363Z,96337.48
2018-02-06T15:32:04.873Z,96344.22
2018-02-06T15:34:37.522Z,96337.97
2018-02-06T15:37:08.376Z,96331.12
2018-02-06T15:39:38.807Z,96339.61
2018-02-06T15:42:12.779Z,96334.59
2018-02-06T15:44:41.324Z,96342.75
2018-02-06T15:47:19.446Z,96343.45
2018-02-06T15:49:48.097Z,96344.81
2018-02-06T15:52:18.243Z,96346.20
2018-02-06T15:54:48.546Z,96347.28
2018-02-06T15:57:22.893Z,96340.26
2018-02-06T15:59:51.453Z,96338.09
2018-02-06T16:02:25.548Z,96332.89
2018-02-06T16:04:54.558Z,96328.53
2018-02-06T16:07:23.845Z,96331.20
2018-02-06T16:09:52.447Z,96334.78
2018-02-06T16:12:22.758Z,96336.97
2018-02-06T16:14:53.796Z,96345.89
2018-02-06T16:17:25.082Z,96333.29
2018-02-06T16:19:56.290Z,96328.55
2018-02-06T16:22:34.826Z,96325.00
2018-02-06T16:25:03.535Z,96319.87
2018-02-06T16:27:33.909Z,96322.23
2018-02-06T16:30:03.565Z,96322.48
2018-02-06T16:32:33.818Z,96320.19
2018-02-06T16:35:04.985Z,96321.34
2018-02-06T16:37:33.655Z,96319.09
2018-02-06T16:40:04.044Z,96320.20
2018-02-06T16:42:32.938Z,96320.88
2018-02-06T16:45:01.524Z,96322.84
2018-02-06T16:47:32.702Z,96324.82
2018-02-06T16:50:14.452Z,96328.48
2018-02-06T16:52:49.524Z,96336.31
2018-02-06T16:55:18.278Z,96340.00
2018-02-06T16:57:48.565Z,96338.17
2018-02-06T17:00:19.551Z,96335.97
2018-02-06T17:02:49.989Z,96331.36
2018-02-06T17:05:21.011Z,96334.14
2018-02-06T17:07:51.320Z,96336.54
2018-02-06T17:10:23.859Z,96335.20
2018-02-06T17:12:52.420Z,96332.55
2018-02-06T17:15:21.399Z,96333.66
2018-02-06T17:17:51.462Z,96323.91
2018-02-06T17:20:21.836Z,96324.20
2018-02-06T17:22:52.787Z,96323.57
2018-02-06T17:25:28.021Z,96331.81
2018-02-06T17:27:59.226Z,96342.56
2018-02-06T17:30:30.472Z,96345.39
2018-02-06T17:32:59.205Z,96348.17
2018-02-06T17:35:29.491Z,96346.83
2018-02-06T17:38:00.800Z,96349.22
2018-02-06T17:40:29.589Z,96350.32
2018-02-06T17:42:58.331Z,96350.17
2018-02-06T17:45:26.946Z,96358.75
2018-02-06T17:47:55.642Z,96348.56
2018-02-06T17:50:24.330Z,96360.92
2018-02-06T17:52:54.887Z,96350.03
2018-02-06T17:55:32.021Z,96346.57
2018-02-06T17:58:02.361Z,96358.13
2018-02-06T18:00:34.978Z,96346.75
2018-02-06T18:03:11.545Z,96358.73
2018-02-06T18:05:46.312Z,96362.41
2018-02-06T18:08:22.498Z,96363.98
2018-02-06T18:10:52.698Z,96358.03
2018-02-06T18:13:30.973Z,96352.89
2018-02-06T18:15:59.511Z,96350.27
2018-02-06T18:18:28.708Z,96346.00
2018-02-06T18:21:06.919Z,96344.27
2018-02-06T18:23:37.089Z,96346.22
2018-02-06T18:26:06.490Z,96342.00
2018-02-06T18:28:35.983Z,96342.81
2018-02-06T18:31:04.455Z,96341.09
2018-02-06T18:33:33.131Z,96343.53
2018-02-06T18:36:03.567Z,96347.58
2018-02-06T18:38:34.513Z,96347.53
2018-02-06T18:41:03.191Z,96349.05
2018-02-06T18:43:38.134Z,96343.58
2018-02-06T18:46:07.620Z,96348.13
2018-02-06T18:48:37.058Z,96350.56
2018-02-06T18:51:05.623Z,96341.26
2018-02-06T18:53:43.413Z,96345.41
2018-02-06T18:56:18.137Z,96344.88
2018-02-06T18:58:46.833Z,96351.98
2018-02-06T19:01:18.619Z,96340.11
2018-02-06T19:03:47.382Z,96346.45
2018-02-06T19:06:18.577Z,96347.20
2018-02-06T19:08:49.820Z,96343.41
2018-02-06T19:11:22.175Z,96342.92
2018-02-06T19:13:50.938Z,96334.16
2018-02-06T19:16:20.339Z,96335.72
2018-02-06T19:18:51.001Z,96338.16
2018-02-06T19:21:21.471Z,96339.36
2018-02-06T19:23:51.934Z,96334.31
2018-02-06T19:26:23.957Z,96339.73
2018-02-06T19:28:56.006Z,96336.81
2018-02-06T19:31:26.510Z,96332.26
2018-02-06T19:33:56.123Z,96332.63
2018-02-06T19:36:27.464Z,96336.32
2018-02-06T19:38:56.268Z,96335.45
2018-02-06T19:41:25.713Z,96327.11
2018-02-06T19:43:56.355Z,96323.32
2018-02-06T19:46:26.857Z,96324.89
2018-02-06T19:48:56.487Z,96323.26
2018-02-06T19:51:25.743Z,96317.05
2018-02-06T19:53:58.638Z,96316.98
2018-02-06T19:56:28.409Z,96317.79
2018-02-06T19:58:58.960Z,96310.69
2018-02-06T20:01:30.924Z,96315.20
2018-02-06T20:04:01.532Z,96315.19
2018-02-06T20:06:30.653Z,96320.12
2018-02-06T20:08:59.648Z,96318.00
2018-02-06T20:11:34.696Z,96309.19
2018-02-06T20:14:05.996Z,96315.02
2018-02-06T20:16:36.317Z,96312.48
2018-02-06T20:19:07.590Z,96311.67
2018-02-06T20:21:39.068Z,96311.19
2018-02-06T20:24:14.295Z,96307.88
2018-02-06T20:26:43.911Z,96304.03
2018-02-06T20:29:14.539Z,96303.97
2018-02-06T20:31:44.152Z,96305.60
2018-02-06T20:34:14.451Z,96301.86
2018-02-06T20:36:45.628Z,96301.75
2018-02-06T20:39:25.665Z,96296.72
2018-02-06T20:41:54.919Z,96299.16
2018-02-06T20:44:25.206Z,96301.22
2018-02-06T20:46:56.255Z,96303.65
2018-02-06T20:49:26.773Z,96302.30
2018-02-06T20:51:57.105Z,96310.14
2018-02-06T20:54:35.394Z,96305.09
2018-02-06T20:57:04.720Z,96297.57
2018-02-06T20:59:34.958Z,96291.67
2018-02-06T21:02:21.484Z,96308.23
2018-02-06T21:04:51.801Z,96300.22
2018-02-06T21:07:21.512Z,96298.91
2018-02-06T21:09:50.028Z,96302.16
2018-02-06T21:12:18.731Z,96305.08
2018-02-06T21:14:49.061Z,96307.48
2018-02-06T21:17:20.114Z,96310.72
2018-02-06T21:19:48.791Z,96306.97
2018-02-06T21:22:18.259Z,96311.56
2018-02-06T21:24:48.252Z,96313.16
2018-02-06T21:27:23.190Z,96313.13
2018-02-06T21:29:53.556Z,96317.20
2018-02-06T21:32:25.378Z,96307.17
2018-02-06T21:34:54.018Z,96307.50
2018-02-06T21:37:22.745Z,96304.89
2018-02-06T21:39:52.923Z,96305.66
2018-02-06T21:42:23.108Z,96303.06
2018-02-06T21:44:53.581Z,96315.02
2018-02-06T21:47:29.124Z,96319.16
2018-02-06T21:50:14.201Z,96309.09
2018-02-06T21:52:44.864Z,96307.80
2018-02-06T21:55:13.630Z,96311.84
2018-02-06T21:57:43.783Z,96295.50
2018-02-06T22:00:14.260Z,96294.00
2018-02-06T22:02:48.552Z,96294.70
2018-02-06T22:05:19.924Z,96295.44
2018-02-06T22:07:50.227Z,96298.25
2018-02-06T22:10:21.290Z,96292.73
2018-02-06T22:12:50.183Z,96295.21
2018-02-06T22:15:23.114Z,96290.13
2018-02-06T22:17:53.505Z,96290.44
2018-02-06T22:20:22.076Z,96288.20
2018-02-06T22:22:50.564Z,96276.09
2018-02-06T22:25:19.050Z,96280.47
2018-02-06T22:27:47.653Z,96283.27
2018-02-06T22:30:18.179Z,96284.41
2018-02-06T22:32:52.006Z,96278.88
2018-02-06T22:35:20.551Z,96279.63
2018-02-06T22:37:49.258Z,96276.26
2018-02-06T22:40:20.368Z,96270.79
2018-02-06T22:42:48.882Z,96266.14
2018-02-06T22:45:19.096Z,96264.41
2018-02-06T22:47:50.062Z,96263.52
2018-02-06T22:50:21.236Z,96264.34
2018-02-06T22:52:50.641Z,96269.25
2018-02-06T22:55:21.790Z,96270.38
2018-02-06T22:57:50.434Z,96268.66
2018-02-06T23:00:26.268Z,96272.33
2018-02-06T23:02:57.788Z,96277.72
2018-02-06T23:05:28.678Z,96275.93
2018-02-06T23:08:02.328Z,96285.02
2018-02-06T23:10:36.797Z,96282.08
2018-02-06T23:13:08.030Z,96282.08
2018-02-06T23:15:38.474Z,96277.48
2018-02-06T23:18:13.501Z,96276.56
2018-02-06T23:20:42.092Z,96273.16
2018-02-06T23:23:13.604Z,96271.90
2018-02-06T23:25:42.236Z,96269.75
2018-02-06T23:28:10.744Z,96267.26
2018-02-06T23:30:41.001Z,96265.57
2018-02-06T23:33:11.413Z,96270.11
2018-02-06T23:35:41.884Z,96264.28
2018-02-06T23:38:11.434Z,96255.12
2018-02-06T23:40:41.668Z,96256.75
2018-02-06T23:43:12.656Z,96255.45
2018-02-06T23:45:48.524Z,96250.46
2018-02-06T23:48:25.120Z,96243.77
2018-02-06T23:50:55.270Z,96245.77
2018-02-06T23:53:23.718Z,96246.19
2018-02-06T23:55:54.229Z,96251.59
2018-02-06T23:58:34.174Z,96245.33
